Shannon, North Carolina
Current Conditions -  °F | °C
As of 8:52 PM on Sunday 21 Dec 2014 (Local Time) from KMEB Reporting Station
Overcast Overcast  
Wind Chill: 41°   Ceiling: 3500
Heat Index: 46°   Visibility: 10mi
Dew Point: 36°   Wind: 12mph
Humidity: 68%   Direction: 80°E
Pressure: 30.22"   Gusts: NA
Location:  34.85°N, 79.14°W
Report Text: KMEB 220152Z AUTO 08010KT 10SM OVC035 08/02 A3022 RMK AO2 SLP233 T00780022
Loading
Personal Weather Stations






























Interactive Weather Map New forecast layout! Learn more

10-Day Weather Forecast

Advertisements
Track Severe Weather on mobile